To NAV CANADA Home Page Login to a new session Search on AWWS site Disclaimer Vers la page française équivalente Tips FAQ What's new on the site To the Forecasts and Observations / NOTAM section To "File a Flight Plan" website Publications and other links Update of the User's profile FIC Telephone Numbers My Weather Data Folder Route Weather Data Regional Weather Data Local Weather Data To the Forecasts and Observations / NOTAM section
Request Generated 11/16/2018 at 01:07:38 UTC . Weather information available at that time is displayed.

METAR/TAF

EDSON/AB    (show WxCam)

METAR CYET 160100Z AUTO 05007KT 2SM -SN SCT005 OVC020 M00/M00 A2985 RMK SLP151=
SPECI CYET 160015Z AUTO 04006KT 2 1/2SM -SN OVC022 01/M01 A2984 RMK VIS VRB 1 1/2-3 SLP143=
SPECI CYET 160013Z AUTO 04007KT 2 1/2SM -SN -UP OVC022 01/M01 A2984 RMK VIS VRB 2-3 SLP143=
SPECI CYET 160004Z AUTO 05006KT 4SM -SN -UP OVC024 01/M01 A2984 RMK SLP142=
SPECI CYET 160003Z AUTO 05006KT 4SM -SN -UP OVC026 01/M01 A2984 RMK SLP142=
SPECI CYET 160001Z AUTO 05006KT 4SM -SN OVC026 01/M01 A2984 RMK SLP142=
METAR CYET 160000Z AUTO 05006KT 4SM -SN -UP OVC026 01/M01 A2984 RMK SLP142=
SPECI CYET 152357Z AUTO 06006KT 5SM -SN -UP OVC026 02/M01 A2984 RMK SLP143=
SPECI CYET 152355Z AUTO 07005KT 7SM -SN -UP OVC028 02/M01 A2984 RMK SLP143=
SPECI CYET 152354Z AUTO 08005KT 7SM -UP OVC028 02/M01 A2984 RMK SLP143=
SPECI CYET 152348Z AUTO 06004KT 040V120 9SM -RA -UP OVC028 02/M01 A2984 RMK SLP143=
METAR CYET 152300Z AUTO 08003KT 060V120 9SM -RA OVC034 03/M02 A2985 RMK SLP147=

CYET - No TAF is issued for this station

Your time UTC time
Weather data provided by Environment Canada and NAV CANADA